CYED/YED METAR and TAF weather

Enter ICAO airport designator
Station Type Date Time Source
CYED METAR 2021/09/27 07:00 UTC NOAA

CYED 270700Z AUTO 00000KT 9SM CLR 07/06 A2957 RMK SLP022


Station Type Date Time Source
CYED Decoded METAR 2021/09/27 07:00 UTC NOAA

Edmonton Namao Alta., Canada (CYED) 53-40N 113-28W 688M
Sep 27, 2021 - 03:00 AM EDT / 2021.09.27 0700 UTC
Wind: Calm:0
Visibility: 9 mile(s):0
Sky conditions: clear
Temperature: 44 F (7 C)
Dew Point: 42 F (6 C)
Relative Humidity: 93%
Pressure (altimeter): 29.57 in. Hg (1001 hPa)
ob: CYED 270700Z AUTO 00000KT 9SM CLR 07/06 A2957 RMK SLP022
cycle: 7

Station Type Date Time Source
CYED TAF 2021/09/25 00:33 UTC NOAA

TAF
AMD TAF
AMD CYED 250531Z 2500/2512 FCST CNCLD DUE END OF FLYING PROGRAM
RMK NXT FCST WILL BE ISSUED AT 271215Z

Example: see airport list